Time;durP1;ratioP1;P1;durP2;ratioP2;P2;SDS_P1;SDS_P2;PMS_P1;PMS_P2;Temp;Humidity;BMP_temperature;BMP_pressure;BME280_temperature;BME280_humidity;BME280_pressure;Samples;Min_cycle;Max_cycle;Signal;HPM_P1;HPM_P2
2023/10/08 00:01:42;;;;;;;7.30;3.60;;;19.30;90.20;;;;;;5055434;28;20581;-56
2023/10/08 00:04:10;;;;;;;6.93;3.83;;;19.30;90.20;;;;;;5055286;28;20480;-56
2023/10/08 00:06:38;;;;;;;7.13;4.60;;;19.30;90.30;;;;;;5055197;28;20442;-56
2023/10/08 00:09:08;;;;;;;6.00;4.40;;;19.20;90.20;;;;;;5055109;28;20453;-56
2023/10/08 00:11:40;;;;;;;8.73;4.67;;;19.20;90.30;;;;;;5055046;28;20445;-57
2023/10/08 00:14:09;;;;;;;5.87;4.60;;;19.20;90.40;;;;;;5054944;28;20445;-57
2023/10/08 00:16:39;;;;;;;9.10;4.70;;;19.20;90.40;;;;;;5054939;28;20500;-57
2023/10/08 00:19:11;;;;;;;6.77;3.80;;;19.10;90.40;;;;;;5054858;28;20481;-57
2023/10/08 00:21:38;;;;;;;7.07;3.63;;;19.10;90.50;;;;;;5054579;28;20470;-57
2023/10/08 00:24:07;;;;;;;8.13;5.03;;;19.10;90.60;;;;;;5054803;28;20446;-57
2023/10/08 00:26:35;;;;;;;4.50;3.90;;;19.10;90.60;;;;;;5054887;28;20449;-57
2023/10/08 00:29:06;;;;;;;7.47;4.47;;;19.10;90.80;;;;;;5054764;28;20540;-57
2023/10/08 00:31:37;;;;;;;12.80;4.50;;;19.10;90.90;;;;;;5054723;28;20491;-57
2023/10/08 00:34:08;;;;;;;6.93;4.73;;;19.10;90.60;;;;;;5054719;28;20427;-57
2023/10/08 00:36:35;;;;;;;7.03;4.07;;;19.00;90.50;;;;;;5054662;28;20810;-57
2023/10/08 00:39:08;;;;;;;6.83;3.90;;;19.00;90.70;;;;;;5054580;28;20450;-57
2023/10/08 00:41:35;;;;;;;6.27;4.30;;;19.00;90.80;;;;;;5054444;28;20559;-57
2023/10/08 00:44:05;;;;;;;6.17;4.30;;;19.00;90.90;;;;;;5054018;28;20939;-56
2023/10/08 00:46:35;;;;;;;5.30;3.90;;;19.00;90.80;;;;;;5054568;28;20480;-57
2023/10/08 00:49:23;;;;;;;8.73;4.47;;;18.90;90.50;;;;;;5054375;28;20521;-57
2023/10/08 00:52:03;;;;;;;5.40;4.40;;;18.90;90.20;;;;;;5054120;28;20936;-56
2023/10/08 00:54:32;;;;;;;7.43;4.10;;;18.90;90.30;;;;;;5054385;28;20429;-57
2023/10/08 00:57:04;;;;;;;7.80;4.70;;;18.80;90.20;;;;;;5054233;28;20445;-57
2023/10/08 00:59:44;;;;;;;7.80;4.33;;;18.80;90.40;;;;;;5054135;28;20462;-57
2023/10/08 01:02:14;;;;;;;7.60;5.10;;;18.80;90.30;;;;;;5053980;28;20474;-56
2023/10/08 01:04:43;;;;;;;8.07;4.40;;;18.80;90.40;;;;;;5053753;28;20460;-57
2023/10/08 01:07:15;;;;;;;5.73;4.30;;;18.80;90.30;;;;;;5053661;28;20545;-57
2023/10/08 01:09:47;;;;;;;6.27;4.60;;;18.80;90.20;;;;;;5053879;28;20473;-57
2023/10/08 01:12:21;;;;;;;8.10;4.40;;;18.80;90.20;;;;;;5053975;28;20429;-57
2023/10/08 01:14:49;;;;;;;8.40;4.90;;;18.70;90.10;;;;;;5053511;28;20911;-57
2023/10/08 01:17:19;;;;;;;7.33;4.43;;;18.60;90.10;;;;;;5053862;28;20453;-57
2023/10/08 01:19:50;;;;;;;9.93;4.50;;;18.50;90.30;;;;;;5053776;28;20472;-57
2023/10/08 01:22:21;;;;;;;7.30;3.83;;;18.50;90.50;;;;;;5053773;28;20477;-57
2023/10/08 01:24:49;;;;;;;6.13;4.20;;;18.50;90.60;;;;;;5053655;28;20491;-56
2023/10/08 01:27:21;;;;;;;5.90;3.80;;;18.50;90.70;;;;;;5054821;28;20456;-57
2023/10/08 01:29:49;;;;;;;5.40;3.80;;;18.40;90.60;;;;;;5053051;28;20557;-57
2023/10/08 01:32:17;;;;;;;5.60;3.30;;;18.40;90.70;;;;;;5053569;28;20446;-56
2023/10/08 01:34:46;;;;;;;8.00;4.43;;;18.40;90.70;;;;;;5053880;28;20524;-57
2023/10/08 01:37:14;;;;;;;5.43;4.50;;;18.40;90.80;;;;;;5053285;28;20955;-57
2023/10/08 01:39:42;;;;;;;6.03;3.80;;;18.40;90.90;;;;;;5053453;28;20477;-57
2023/10/08 01:42:17;;;;;;;6.40;3.90;;;18.40;90.90;;;;;;5053320;28;20485;-56
2023/10/08 01:44:46;;;;;;;5.50;4.00;;;18.40;90.90;;;;;;5053146;28;20429;-56
2023/10/08 01:47:14;;;;;;;7.30;5.00;;;18.40;90.80;;;;;;5053346;28;20453;-57
2023/10/08 01:49:43;;;;;;;5.70;3.97;;;18.40;90.60;;;;;;5053142;28;20473;-57
2023/10/08 01:52:16;;;;;;;6.77;4.70;;;18.40;90.90;;;;;;5052952;28;20449;-57
2023/10/08 01:54:44;;;;;;;7.20;4.77;;;18.30;90.60;;;;;;5053259;28;20426;-56
2023/10/08 01:57:12;;;;;;;6.73;4.30;;;18.20;90.60;;;;;;5053681;28;20460;-57
2023/10/08 01:59:39;;;;;;;5.27;4.07;;;18.30;90.60;;;;;;5053148;28;20472;-57
2023/10/08 02:02:06;;;;;;;5.90;3.80;;;18.20;90.40;;;;;;5053091;28;20563;-57
2023/10/08 02:04:35;;;;;;;7.43;4.40;;;18.10;90.40;;;;;;5053183;28;20453;-57
2023/10/08 02:07:03;;;;;;;6.63;4.63;;;18.10;90.40;;;;;;5053190;28;20453;-57
2023/10/08 02:09:30;;;;;;;5.27;4.30;;;18.10;90.50;;;;;;5053030;28;20469;-56
2023/10/08 02:11:58;;;;;;;5.50;3.83;;;18.10;90.30;;;;;;5053171;28;20437;-57
2023/10/08 02:14:25;;;;;;;5.63;3.97;;;18.10;90.40;;;;;;5053094;28;20450;-57
2023/10/08 02:16:55;;;;;;;5.80;4.23;;;18.10;90.40;;;;;;5053135;28;20446;-57
2023/10/08 02:19:26;;;;;;;6.50;3.63;;;18.20;90.50;;;;;;5053517;28;20444;-57
2023/10/08 02:21:54;;;;;;;7.90;4.60;;;18.10;90.30;;;;;;5052718;28;20465;-56
2023/10/08 02:24:22;;;;;;;13.87;8.30;;;18.10;90.10;;;;;;5053034;28;20469;-57
2023/10/08 02:26:48;;;;;;;16.70;7.80;;;18.10;89.80;;;;;;5052760;28;20477;-57
2023/10/08 02:29:16;;;;;;;6.60;4.53;;;18.10;89.80;;;;;;5053006;28;20445;-57
2023/10/08 02:31:44;;;;;;;6.50;4.23;;;18.00;89.20;;;;;;5053313;28;20441;-57
2023/10/08 02:34:13;;;;;;;6.23;4.10;;;18.10;89.40;;;;;;5052767;28;20556;-56
2023/10/08 02:36:40;;;;;;;4.60;3.90;;;18.00;89.10;;;;;;5052950;28;20442;-56
2023/10/08 02:39:13;;;;;;;7.30;4.47;;;18.00;89.50;;;;;;5052782;28;20484;-57
2023/10/08 02:41:42;;;;;;;5.97;4.00;;;18.00;89.40;;;;;;5054479;28;20469;-57
2023/10/08 02:44:11;;;;;;;5.87;4.10;;;18.00;89.50;;;;;;5056379;28;20919;-57
2023/10/08 02:46:41;;;;;;;8.67;4.37;;;17.90;88.30;;;;;;5056722;28;20457;-57
2023/10/08 02:49:10;;;;;;;5.83;3.77;;;17.90;89.20;;;;;;5056291;28;20503;-57
2023/10/08 02:51:37;;;;;;;11.03;4.83;;;17.90;89.60;;;;;;5056339;28;20449;-57
2023/10/08 02:54:05;;;;;;;7.00;4.87;;;17.90;89.10;;;;;;5056561;28;20442;-57
2023/10/08 02:56:33;;;;;;;8.10;4.13;;;17.90;89.00;;;;;;5056183;28;20934;-57
2023/10/08 02:59:00;;;;;;;7.53;3.97;;;17.90;88.80;;;;;;5056662;28;20483;-57
2023/10/08 03:01:26;;;;;;;9.93;4.07;;;17.90;89.10;;;;;;5056310;28;20465;-57
2023/10/08 03:04:08;;;;;;;7.13;4.50;;;17.90;89.10;;;;;;5056495;28;20445;-57
2023/10/08 03:06:35;;;;;;;6.77;3.60;;;17.90;88.80;;;;;;5057301;28;20448;-57
2023/10/08 03:09:04;;;;;;;5.90;4.07;;;18.00;89.30;;;;;;5056518;28;20449;-57
2023/10/08 03:11:31;;;;;;;7.37;4.60;;;17.90;88.70;;;;;;5056429;28;20484;-57
2023/10/08 03:13:58;;;;;;;10.37;4.27;;;17.90;89.00;;;;;;5056332;28;20438;-56
2023/10/08 03:16:28;;;;;;;8.20;4.17;;;17.90;89.10;;;;;;5056431;28;20445;-57
2023/10/08 03:18:57;;;;;;;6.80;4.70;;;17.90;88.60;;;;;;5056679;28;20789;-57
2023/10/08 03:21:44;;;;;;;8.27;4.30;;;17.90;89.00;;;;;;5056015;28;20492;-57
2023/10/08 03:24:29;;;;;;;6.33;4.50;;;17.90;89.10;;;;;;5056041;28;20425;-57
2023/10/08 03:27:06;;;;;;;9.17;4.40;;;17.80;88.40;;;;;;5056079;28;20483;-57
2023/10/08 03:29:40;;;;;;;8.97;4.40;;;17.80;88.70;;;;;;5055671;28;20974;-57
2023/10/08 03:32:12;;;;;;;6.80;4.50;;;17.80;89.00;;;;;;5056242;28;20426;-56
2023/10/08 03:34:43;;;;;;;6.93;4.40;;;17.80;89.40;;;;;;5056089;28;20503;-57
2023/10/08 03:37:15;;;;;;;8.87;5.30;;;17.80;88.90;;;;;;5055589;28;20434;-57
2023/10/08 03:39:51;;;;;;;6.57;4.00;;;17.70;89.60;;;;;;5055915;28;20504;-57
2023/10/08 03:42:22;;;;;;;6.60;4.77;;;17.70;89.20;;;;;;5055788;28;20519;-57
2023/10/08 03:44:51;;;;;;;7.20;4.30;;;17.70;89.60;;;;;;5055551;28;20485;-56
2023/10/08 03:47:19;;;;;;;8.93;4.20;;;17.70;90.30;;;;;;5055433;28;20818;-57
2023/10/08 03:49:51;;;;;;;7.77;4.43;;;17.70;89.80;;;;;;5055409;28;20465;-57
2023/10/08 03:52:18;;;;;;;8.90;4.13;;;17.70;90.10;;;;;;5055244;28;20442;-57
2023/10/08 03:54:48;;;;;;;8.87;4.30;;;17.70;89.30;;;;;;5055173;28;20874;-57
2023/10/08 03:57:35;;;;;;;7.00;4.00;;;17.70;88.50;;;;;;5055676;28;20438;-57
2023/10/08 04:00:09;;;;;;;8.93;4.60;;;17.60;88.60;;;;;;5054929;28;20473;-56
2023/10/08 04:02:41;;;;;;;10.77;5.40;;;17.60;88.60;;;;;;5055001;28;20465;-57
2023/10/08 04:05:19;;;;;;;6.83;4.63;;;17.60;89.00;;;;;;5055249;28;20488;-57
2023/10/08 04:11:07;;;;;;;7.07;4.47;;;17.50;89.20;;;;;;5111196;27;20521;-56
2023/10/08 04:13:28;;;;;;;6.33;4.53;;;17.60;89.40;;;;;;5110689;28;20607;-57
2023/10/08 04:15:55;;;;;;;7.27;4.13;;;17.50;89.50;;;;;;5111224;28;20503;-57
2023/10/08 04:18:21;;;;;;;10.70;4.43;;;17.60;90.00;;;;;;5111154;28;20477;-57
2023/10/08 04:21:00;;;;;;;13.30;6.00;;;17.50;89.40;;;;;;5111079;28;20470;-56
2023/10/08 04:23:28;;;;;;;6.70;4.30;;;17.50;89.10;;;;;;5111087;28;20496;-56
2023/10/08 04:25:57;;;;;;;14.80;5.00;;;17.40;89.60;;;;;;5110985;28;20443;-57
2023/10/08 04:28:28;;;;;;;8.10;4.87;;;17.40;89.80;;;;;;5110812;28;20446;-57
2023/10/08 04:31:00;;;;;;;10.30;5.13;;;17.40;89.80;;;;;;5110831;28;20463;-57
2023/10/08 04:33:31;;;;;;;6.63;4.03;;;17.40;89.70;;;;;;5110872;28;20848;-57
2023/10/08 04:36:01;;;;;;;8.43;4.83;;;17.30;89.60;;;;;;5110856;28;20442;-57
2023/10/08 04:38:29;;;;;;;7.30;4.47;;;17.30;89.40;;;;;;5110438;28;20980;-56
2023/10/08 04:41:01;;;;;;;6.50;4.40;;;17.30;89.90;;;;;;5110683;28;20469;-57
2023/10/08 04:43:30;;;;;;;8.97;5.20;;;17.30;89.80;;;;;;5110610;28;20455;-57
2023/10/08 04:45:57;;;;;;;9.40;5.27;;;17.30;90.30;;;;;;5110573;28;20541;-57
2023/10/08 04:48:24;;;;;;;9.43;4.63;;;17.30;90.40;;;;;;5110285;28;20956;-57
2023/10/08 04:50:58;;;;;;;10.13;4.40;;;17.30;90.10;;;;;;5110494;28;20505;-57
2023/10/08 04:53:31;;;;;;;8.13;4.00;;;17.30;89.50;;;;;;5110500;28;20427;-57
2023/10/08 04:56:02;;;;;;;6.50;4.20;;;17.30;89.80;;;;;;5110478;28;20480;-57
2023/10/08 04:58:36;;;;;;;9.73;4.80;;;17.30;89.80;;;;;;5110441;28;20423;-57
2023/10/08 05:01:17;;;;;;;7.90;4.03;;;17.30;90.00;;;;;;5110157;28;20485;-56
2023/10/08 05:04:07;;;;;;;9.13;4.33;;;17.40;90.00;;;;;;5109999;28;20970;-57
2023/10/08 05:06:50;;;;;;;6.03;4.13;;;17.40;89.60;;;;;;5109883;28;20534;-57
2023/10/08 05:09:23;;;;;;;9.33;4.80;;;17.40;89.80;;;;;;5109846;28;20514;-57
2023/10/08 05:12:10;;;;;;;7.90;4.30;;;17.50;90.10;;;;;;5110237;28;20436;-57
2023/10/08 05:14:45;;;;;;;6.80;4.17;;;17.50;90.00;;;;;;5110050;28;20435;-56
2023/10/08 05:17:21;;;;;;;11.53;5.17;;;17.50;90.00;;;;;;5110127;28;20423;-57
2023/10/08 05:19:56;;;;;;;7.50;4.53;;;17.50;90.20;;;;;;5109918;28;20455;-57
2023/10/08 05:22:44;;;;;;;6.40;4.67;;;17.50;89.30;;;;;;5096236;28;20485;-57
2023/10/08 05:25:24;;;;;;;9.10;4.70;;;17.50;90.00;;;;;;5096359;28;20451;-57
2023/10/08 05:27:59;;;;;;;9.70;4.73;;;17.50;90.10;;;;;;5096293;28;20481;-57
2023/10/08 05:30:37;;;;;;;8.43;4.73;;;17.50;90.00;;;;;;5095716;28;21032;-57
2023/10/08 05:33:23;;;;;;;10.10;5.13;;;17.50;90.20;;;;;;5096147;28;20424;-56
2023/10/08 05:35:54;;;;;;;7.20;4.23;;;17.50;90.20;;;;;;5094836;28;20875;-56
2023/10/08 05:38:38;;;;;;;6.00;4.10;;;17.50;90.40;;;;;;5096083;28;20477;-57
2023/10/08 05:41:16;;;;;;;6.47;4.67;;;17.50;90.60;;;;;;5095851;28;20470;-57
2023/10/08 05:44:13;;;;;;;6.10;4.70;;;17.50;90.50;;;;;;5095866;28;20438;-57
2023/10/08 05:46:47;;;;;;;7.70;4.50;;;17.50;90.70;;;;;;5095869;28;20455;-57
2023/10/08 05:49:26;;;;;;;7.63;4.40;;;17.50;90.80;;;;;;5095814;28;20490;-57
2023/10/08 05:54:47;;;;;;;9.20;5.50;;;17.50;91.00;;;;;;5095784;28;20489;-57
2023/10/08 05:57:24;;;;;;;10.50;4.47;;;17.50;91.10;;;;;;5095419;28;20942;-57
2023/10/08 06:03:00;;;;;;;7.40;4.50;;;17.50;91.20;;;;;;5095037;28;20859;-57
2023/10/08 06:05:32;;;;;;;7.23;4.93;;;17.50;91.20;;;;;;5096002;28;20490;-57
2023/10/08 06:08:11;;;;;;;7.27;4.67;;;17.40;90.80;;;;;;5095546;28;20424;-56
2023/10/08 06:10:46;;;;;;;6.17;4.53;;;17.40;90.90;;;;;;5095034;28;21015;-57
2023/10/08 06:13:16;;;;;;;6.40;4.20;;;17.30;90.60;;;;;;5095317;28;20431;-57
2023/10/08 06:15:51;;;;;;;5.60;5.00;;;17.30;90.70;;;;;;5095319;28;20451;-57
2023/10/08 06:18:18;;;;;;;5.10;4.33;;;17.30;90.90;;;;;;5095300;28;20428;-57
2023/10/08 06:20:45;;;;;;;7.80;5.13;;;17.30;91.00;;;;;;5095202;28;20462;-57
2023/10/08 06:23:15;;;;;;;8.00;5.27;;;17.30;91.10;;;;;;5094824;28;20447;-57
2023/10/08 06:25:54;;;;;;;7.50;4.90;;;17.30;90.90;;;;;;5094782;28;20830;-57
2023/10/08 06:28:21;;;;;;;9.00;5.20;;;17.30;91.00;;;;;;5095173;28;20432;-57
2023/10/08 06:30:53;;;;;;;4.63;4.13;;;17.30;91.00;;;;;;5095014;28;20503;-57
2023/10/08 06:33:21;;;;;;;8.57;4.60;;;17.20;91.20;;;;;;5094019;28;20471;-56
2023/10/08 06:36:01;;;;;;;10.17;5.10;;;17.20;91.10;;;;;;5095388;28;20497;-57
2023/10/08 06:38:30;;;;;;;7.27;4.40;;;17.20;91.20;;;;;;5095472;28;20432;-57
2023/10/08 06:40:59;;;;;;;8.03;5.33;;;17.20;91.20;;;;;;5094736;28;20495;-57
2023/10/08 06:43:26;;;;;;;9.90;5.17;;;17.20;91.40;;;;;;5094354;28;20929;-57
2023/10/08 06:45:57;;;;;;;6.90;4.50;;;17.20;91.60;;;;;;5094814;28;20521;-57
2023/10/08 06:48:25;;;;;;;8.87;5.50;;;17.20;91.50;;;;;;5094804;28;20507;-57
2023/10/08 06:50:56;;;;;;;7.50;4.73;;;17.30;91.70;;;;;;5094488;28;20494;-56
2023/10/08 06:53:24;;;;;;;8.30;4.83;;;17.30;91.60;;;;;;5094626;28;20436;-57
2023/10/08 06:55:56;;;;;;;8.27;5.10;;;17.30;91.60;;;;;;5094538;28;20493;-57
2023/10/08 06:58:23;;;;;;;10.47;4.70;;;17.30;91.70;;;;;;5094589;28;20424;-57
2023/10/08 07:00:50;;;;;;;8.43;4.83;;;17.40;91.90;;;;;;5094375;28;20463;-56
2023/10/08 07:03:18;;;;;;;7.60;5.13;;;17.50;91.60;;;;;;5094567;28;20448;-57
2023/10/08 07:05:54;;;;;;;11.87;5.33;;;17.60;91.40;;;;;;5094364;28;20446;-57
2023/10/08 07:08:23;;;;;;;9.70;5.27;;;17.60;91.20;;;;;;5094158;28;20432;-57
2023/10/08 07:10:50;;;;;;;8.47;4.97;;;17.60;91.20;;;;;;5093929;28;20993;-57
2023/10/08 07:13:17;;;;;;;8.13;5.30;;;17.70;91.20;;;;;;5094215;28;20448;-57
2023/10/08 07:15:44;;;;;;;8.53;5.27;;;17.70;91.00;;;;;;5093897;28;20440;-57
2023/10/08 07:18:12;;;;;;;9.80;6.20;;;17.80;91.10;;;;;;5094117;28;20443;-57
2023/10/08 07:20:45;;;;;;;7.53;4.73;;;17.80;91.10;;;;;;5094115;28;20467;-57
2023/10/08 07:23:19;;;;;;;9.63;5.20;;;18.00;91.20;;;;;;5093754;28;21001;-57
2023/10/08 07:25:51;;;;;;;10.20;5.57;;;18.00;91.20;;;;;;5094016;28;20435;-57
2023/10/08 07:28:19;;;;;;;6.77;4.73;;;18.00;90.90;;;;;;5093733;28;20964;-57
2023/10/08 07:30:48;;;;;;;9.33;4.90;;;18.10;90.80;;;;;;5093865;28;20515;-57
2023/10/08 07:33:18;;;;;;;8.73;5.13;;;18.10;90.80;;;;;;5094134;28;20447;-56
2023/10/08 07:35:54;;;;;;;6.43;4.43;;;18.20;90.90;;;;;;5093840;28;20448;-57
2023/10/08 07:38:22;;;;;;;11.23;5.40;;;18.20;90.90;;;;;;5093584;28;20924;-57
2023/10/08 07:40:49;;;;;;;10.47;5.33;;;18.30;91.10;;;;;;5093689;28;20560;-57
2023/10/08 07:43:20;;;;;;;7.73;4.97;;;18.40;91.10;;;;;;5094245;28;20769;-57
2023/10/08 07:45:46;;;;;;;10.60;4.80;;;18.40;91.10;;;;;;5093734;28;20424;-57
2023/10/08 07:48:15;;;;;;;10.10;5.37;;;18.50;91.00;;;;;;5093706;28;20444;-57
2023/10/08 07:50:43;;;;;;;11.17;5.53;;;18.50;91.10;;;;;;5093534;28;20847;-57
2023/10/08 07:53:17;;;;;;;9.07;4.70;;;18.60;91.20;;;;;;5093252;28;20475;-56
2023/10/08 07:55:46;;;;;;;9.63;5.67;;;18.60;91.10;;;;;;5093581;28;20455;-57
2023/10/08 07:58:14;;;;;;;6.73;5.20;;;18.70;91.20;;;;;;5093234;28;20984;-57
2023/10/08 08:00:41;;;;;;;6.80;5.23;;;18.70;91.10;;;;;;5093434;28;20467;-56
2023/10/08 08:03:08;;;;;;;7.13;5.30;;;18.70;90.80;;;;;;5093517;28;20440;-57
2023/10/08 08:05:37;;;;;;;12.90;5.20;;;18.70;90.60;;;;;;5093484;28;20471;-57
2023/10/08 08:08:06;;;;;;;8.00;4.97;;;18.80;90.70;;;;;;5093819;28;20455;-57
2023/10/08 08:10:36;;;;;;;7.97;5.73;;;18.90;90.20;;;;;;5092892;28;21009;-57
2023/10/08 08:13:05;;;;;;;8.40;5.27;;;19.00;90.20;;;;;;5093305;28;20472;-57
2023/10/08 08:15:33;;;;;;;11.90;5.60;;;19.00;90.10;;;;;;5093831;28;20451;-57
2023/10/08 08:18:00;;;;;;;10.93;5.77;;;19.20;90.00;;;;;;5093971;28;20448;-57
2023/10/08 08:20:38;;;;;;;9.03;5.63;;;19.30;89.80;;;;;;5093333;28;20826;-57
2023/10/08 08:23:07;;;;;;;14.13;6.10;;;19.40;89.30;;;;;;5093638;28;20431;-57
2023/10/08 08:25:45;;;;;;;11.00;5.53;;;19.60;89.40;;;;;;5094048;28;20446;-57
2023/10/08 08:28:16;;;;;;;8.37;5.53;;;19.70;88.60;;;;;;5093306;28;20427;-57
2023/10/08 08:30:46;;;;;;;12.20;6.07;;;19.80;88.20;;;;;;5093128;28;20488;-57
2023/10/08 08:33:16;;;;;;;10.00;5.40;;;19.80;86.50;;;;;;5093185;28;20443;-56
2023/10/08 08:35:45;;;;;;;7.33;5.80;;;19.80;85.80;;;;;;5076309;28;20892;-56
2023/10/08 08:38:12;;;;;;;8.57;5.30;;;19.80;85.50;;;;;;5072960;28;20445;-56
2023/10/08 08:40:40;;;;;;;7.67;5.80;;;19.80;85.00;;;;;;5072790;28;20464;-56
2023/10/08 08:43:09;;;;;;;12.40;6.20;;;19.90;85.10;;;;;;5072865;28;20502;-56
2023/10/08 08:45:40;;;;;;;11.67;6.27;;;19.80;84.70;;;;;;5073144;28;20503;-57
2023/10/08 08:48:07;;;;;;;11.83;6.03;;;19.80;85.30;;;;;;5072882;28;20436;-57
2023/10/08 08:50:35;;;;;;;14.57;5.63;;;19.90;86.50;;;;;;5072765;28;20511;-57
2023/10/08 08:53:04;;;;;;;10.37;5.70;;;20.00;87.20;;;;;;5072485;28;20456;-56
2023/10/08 08:55:32;;;;;;;9.93;5.93;;;20.20;87.20;;;;;;5073440;28;20871;-56
2023/10/08 08:58:04;;;;;;;8.40;5.33;;;20.30;85.90;;;;;;5076184;28;20452;-56
2023/10/08 09:00:31;;;;;;;11.90;6.27;;;20.40;84.40;;;;;;5076216;28;21075;-56
2023/10/08 09:02:59;;;;;;;11.33;6.67;;;20.40;84.00;;;;;;5076757;28;20444;-57
2023/10/08 09:05:25;;;;;;;13.07;5.00;;;20.50;84.10;;;;;;5076357;28;20449;-57
2023/10/08 09:07:58;;;;;;;8.87;5.70;;;20.60;83.80;;;;;;5076700;28;20844;-57
2023/10/08 09:10:28;;;;;;;8.93;4.80;;;20.70;82.90;;;;;;5075832;28;20514;-57
2023/10/08 09:12:57;;;;;;;12.87;5.60;;;20.80;81.00;;;;;;5076311;28;20468;-57
2023/10/08 09:15:25;;;;;;;16.03;6.40;;;20.90;80.60;;;;;;5076025;28;20448;-56
2023/10/08 09:17:52;;;;;;;8.27;5.63;;;21.00;80.20;;;;;;5076223;28;20842;-57
2023/10/08 09:20:21;;;;;;;11.43;5.37;;;21.20;80.30;;;;;;5075804;28;20815;-57
2023/10/08 09:23:07;;;;;;;8.07;5.50;;;21.30;81.30;;;;;;5076107;28;20441;-57
2023/10/08 09:25:34;;;;;;;12.53;6.63;;;21.40;79.90;;;;;;5076314;28;20456;-58
2023/10/08 09:28:01;;;;;;;11.60;6.80;;;21.60;79.80;;;;;;5076278;28;20448;-57
2023/10/08 09:30:30;;;;;;;17.50;6.83;;;21.70;79.50;;;;;;5076008;28;20503;-57
2023/10/08 09:32:57;;;;;;;15.57;7.30;;;21.90;79.00;;;;;;5076053;28;20499;-57
2023/10/08 09:35:26;;;;;;;10.33;6.53;;;22.10;78.70;;;;;;5075951;28;21021;-57
2023/10/08 09:37:55;;;;;;;15.50;6.73;;;22.40;78.30;;;;;;5076257;28;20445;-57
2023/10/08 09:40:22;;;;;;;10.20;5.83;;;22.60;78.30;;;;;;5075780;28;20457;-56
2023/10/08 09:42:49;;;;;;;12.93;6.60;;;22.80;77.50;;;;;;5075858;28;20456;-57
2023/10/08 09:45:16;;;;;;;11.77;6.40;;;23.00;76.10;;;;;;5075563;28;20935;-57
2023/10/08 09:47:51;;;;;;;11.10;6.77;;;23.10;75.30;;;;;;5075808;28;20464;-57
2023/10/08 09:50:21;;;;;;;10.90;7.23;;;23.30;74.60;;;;;;5075247;28;20899;-57
2023/10/08 09:52:56;;;;;;;12.90;6.57;;;23.40;73.80;;;;;;5075844;28;20436;-57
2023/10/08 09:55:23;;;;;;;13.07;6.53;;;23.50;73.30;;;;;;5075448;28;20519;-57
2023/10/08 09:57:50;;;;;;;17.67;8.50;;;23.60;73.10;;;;;;5075552;28;20449;-57
2023/10/08 10:00:29;;;;;;;13.20;7.90;;;23.70;72.60;;;;;;5075253;28;20464;-57
2023/10/08 10:02:59;;;;;;;15.13;6.70;;;23.70;71.20;;;;;;5075492;28;20527;-57
2023/10/08 10:05:30;;;;;;;15.43;9.07;;;23.90;70.90;;;;;;5075465;28;20527;-57
2023/10/08 10:07:57;;;;;;;18.50;8.10;;;23.90;71.40;;;;;;5075435;28;20433;-58
2023/10/08 10:10:30;;;;;;;16.87;7.87;;;23.90;71.50;;;;;;5075221;28;20489;-58
2023/10/08 10:13:00;;;;;;;16.50;7.80;;;23.80;70.30;;;;;;5075417;28;20925;-57
2023/10/08 10:15:30;;;;;;;10.73;6.00;;;23.70;71.00;;;;;;5075103;28;20448;-58
2023/10/08 10:18:00;;;;;;;12.57;7.53;;;23.70;71.70;;;;;;5075924;28;21011;-57
2023/10/08 10:20:27;;;;;;;13.10;6.70;;;23.80;71.80;;;;;;5074759;28;20468;-57
2023/10/08 10:22:54;;;;;;;16.97;8.93;;;23.90;71.60;;;;;;5075176;28;20444;-57
2023/10/08 10:25:37;;;;;;;14.53;7.70;;;24.00;71.30;;;;;;5075091;28;20445;-57
2023/10/08 10:28:25;;;;;;;21.03;9.07;;;24.00;71.00;;;;;;5074981;28;20425;-57
2023/10/08 10:30:52;;;;;;;13.87;7.77;;;23.90;70.70;;;;;;5074739;28;20488;-56
2023/10/08 10:33:20;;;;;;;14.90;7.27;;;23.90;70.70;;;;;;5075019;28;20484;-57
2023/10/08 10:35:52;;;;;;;18.53;9.40;;;23.90;71.00;;;;;;5075505;28;20459;-57
2023/10/08 10:38:22;;;;;;;13.00;7.47;;;23.90;71.30;;;;;;5074962;28;20898;-57
2023/10/08 10:40:56;;;;;;;17.40;7.33;;;23.90;71.60;;;;;;5075060;28;20468;-57
2023/10/08 10:43:31;;;;;;;11.00;7.20;;;23.90;71.50;;;;;;5074848;28;20519;-57
2023/10/08 10:46:00;;;;;;;15.93;8.90;;;23.90;71.60;;;;;;5074507;28;20444;-57
2023/10/08 10:48:34;;;;;;;13.90;8.10;;;23.90;71.80;;;;;;5074581;28;20455;-57
2023/10/08 10:51:10;;;;;;;16.33;8.90;;;24.00;71.20;;;;;;5074586;28;20542;-57
2023/10/08 10:53:44;;;;;;;14.23;7.17;;;24.10;71.00;;;;;;5074682;28;20437;-57
2023/10/08 10:56:18;;;;;;;14.10;8.10;;;24.20;70.70;;;;;;5074632;28;20467;-57
2023/10/08 10:58:46;;;;;;;16.37;10.60;;;24.30;70.40;;;;;;5075208;28;20437;-57
2023/10/08 11:01:23;;;;;;;22.67;10.07;;;24.40;69.40;;;;;;5074827;28;21047;-57
2023/10/08 11:03:52;;;;;;;15.13;7.40;;;24.40;68.80;;;;;;5074575;28;20432;-57
2023/10/08 11:06:22;;;;;;;19.50;8.87;;;24.50;68.60;;;;;;5074312;28;20453;-57
2023/10/08 11:08:50;;;;;;;15.87;9.13;;;24.60;68.40;;;;;;5073964;28;20456;-57
2023/10/08 11:11:18;;;;;;;19.23;9.30;;;24.70;68.80;;;;;;5075081;28;20901;-57
2023/10/08 11:13:51;;;;;;;19.10;10.03;;;24.70;68.10;;;;;;5076507;28;20452;-57
2023/10/08 11:16:21;;;;;;;12.03;7.80;;;24.70;67.10;;;;;;5076000;28;20468;-57
2023/10/08 11:18:50;;;;;;;9.77;6.53;;;24.70;67.00;;;;;;5074838;28;20524;-58
2023/10/08 11:21:23;;;;;;;15.40;8.20;;;24.70;67.00;;;;;;5073874;28;20522;-57
2023/10/08 11:23:55;;;;;;;12.10;8.67;;;24.70;67.40;;;;;;5073809;28;20428;-57
2023/10/08 11:26:31;;;;;;;15.50;8.27;;;24.70;68.10;;;;;;5073779;28;20498;-57
2023/10/08 11:29:00;;;;;;;14.67;11.00;;;24.70;68.40;;;;;;5073735;28;20429;-57
2023/10/08 11:31:28;;;;;;;13.53;7.70;;;24.70;68.70;;;;;;5073571;28;20491;-57
2023/10/08 11:34:00;;;;;;;16.30;9.37;;;24.70;68.40;;;;;;5073339;28;20464;-57
2023/10/08 11:36:30;;;;;;;21.37;10.30;;;24.70;68.60;;;;;;5073342;28;20922;-57
2023/10/08 11:39:02;;;;;;;15.63;9.90;;;24.70;68.40;;;;;;5073831;28;20441;-57
2023/10/08 11:41:29;;;;;;;24.30;10.10;;;24.60;68.50;;;;;;5073656;28;20514;-57
2023/10/08 11:43:58;;;;;;;24.07;10.73;;;24.50;68.70;;;;;;5073472;28;20444;-57
2023/10/08 11:46:32;;;;;;;18.03;10.10;;;24.50;68.90;;;;;;5073482;28;20441;-57
2023/10/08 11:49:04;;;;;;;12.93;9.10;;;24.50;69.40;;;;;;5073767;28;20802;-57
2023/10/08 11:51:33;;;;;;;23.20;10.90;;;24.50;69.90;;;;;;5073410;28;20488;-57
2023/10/08 11:54:00;;;;;;;18.17;9.30;;;24.40;70.20;;;;;;5073420;28;20445;-57
2023/10/08 11:56:27;;;;;;;18.73;9.00;;;24.40;70.50;;;;;;5073445;28;20530;-57
2023/10/08 11:58:56;;;;;;;15.93;8.57;;;24.40;70.30;;;;;;5073387;28;20444;-58
2023/10/08 12:01:23;;;;;;;15.80;8.60;;;24.50;70.00;;;;;;5073211;28;20456;-57
2023/10/08 12:03:50;;;;;;;19.03;8.07;;;24.50;69.60;;;;;;5073314;28;20443;-57
2023/10/08 12:06:19;;;;;;;16.77;9.97;;;24.50;69.80;;;;;;5073266;28;20437;-57
2023/10/08 12:08:47;;;;;;;15.97;10.53;;;24.40;70.10;;;;;;5073211;28;20551;-57
2023/10/08 12:11:14;;;;;;;16.43;8.63;;;24.40;70.30;;;;;;5072697;28;21020;-57
2023/10/08 12:13:44;;;;;;;26.63;11.30;;;24.20;70.30;;;;;;5073110;28;20441;-57
2023/10/08 12:16:20;;;;;;;21.73;9.37;;;24.10;70.70;;;;;;5073204;28;20445;-57
2023/10/08 12:18:52;;;;;;;37.67;12.87;;;24.00;71.30;;;;;;5072941;28;20928;-57
2023/10/08 12:21:19;;;;;;;22.43;12.20;;;23.90;72.00;;;;;;5073160;28;20460;-57
2023/10/08 12:23:49;;;;;;;19.53;10.33;;;23.80;72.80;;;;;;5073094;28;20441;-57
2023/10/08 12:26:18;;;;;;;20.27;10.73;;;23.70;73.20;;;;;;5073123;28;20440;-57
2023/10/08 12:28:45;;;;;;;18.30;9.20;;;23.60;73.20;;;;;;5073147;28;20456;-57
2023/10/08 12:31:15;;;;;;;17.57;10.50;;;23.50;73.60;;;;;;5074302;28;20855;-57
2023/10/08 12:33:43;;;;;;;23.60;10.43;;;23.50;74.70;;;;;;5077092;28;20452;-57
2023/10/08 12:36:13;;;;;;;20.37;9.07;;;23.50;75.40;;;;;;5077319;28;20535;-57
2023/10/08 12:38:43;;;;;;;15.77;9.07;;;23.40;75.80;;;;;;5077002;28;20448;-57
2023/10/08 12:41:16;;;;;;;18.40;8.43;;;23.40;75.90;;;;;;5076509;28;20464;-57
2023/10/08 12:43:45;;;;;;;13.97;8.70;;;23.40;76.90;;;;;;5076462;28;20918;-57
2023/10/08 12:46:17;;;;;;;11.80;8.63;;;23.50;76.20;;;;;;5076497;28;20456;-57
2023/10/08 12:48:47;;;;;;;14.93;8.10;;;23.60;76.20;;;;;;5076577;28;20890;-57
2023/10/08 12:51:15;;;;;;;19.47;9.80;;;23.70;75.80;;;;;;5076917;28;20488;-57
2023/10/08 12:53:50;;;;;;;14.97;8.97;;;23.80;75.40;;;;;;5076858;28;20445;-57
2023/10/08 12:56:21;;;;;;;18.63;10.20;;;24.10;75.30;;;;;;5076458;28;20895;-57
2023/10/08 12:58:49;;;;;;;15.67;9.10;;;24.60;73.70;;;;;;5076641;28;20528;-57
2023/10/08 13:01:17;;;;;;;15.77;8.57;;;25.30;71.40;;;;;;5076665;28;20464;-57
2023/10/08 13:03:47;;;;;;;14.63;9.83;;;26.10;68.20;;;;;;5076580;28;20451;-57
2023/10/08 13:06:21;;;;;;;14.90;9.40;;;26.50;64.70;;;;;;5076238;28;20480;-57
2023/10/08 13:08:48;;;;;;;16.57;9.50;;;26.90;62.90;;;;;;5076131;28;20452;-57
2023/10/08 13:11:15;;;;;;;13.20;9.00;;;27.10;62.10;;;;;;5076282;28;20914;-57